Bonesteel, South Dakota
Current Conditions -  °F | °C
As of 1:35 AM on Wednesday 22 Oct 2014 (Local Time) from KONL Reporting Station
Clear Clear  
Wind Chill: 59°   Ceiling: Unl
Heat Index: 59°   Visibility: 10mi
Dew Point: 45°   Wind: 13mph
Humidity: 59%   Direction: 150°SSE
Pressure: 29.93"   Gusts: NA
Location:  43.08°N, 98.94°W
Report Text: KONL 220635Z AUTO 15011KT 10SM CLR 15/07 A2993 RMK AO2 T01500070
Loading
Personal Weather Stations






























Interactive Weather Map
Tropical Storm Tracking
New forecast layout! Learn more

10-Day Weather Forecast

Advertisements
Track Severe Weather on mobile